createdAt,value
2022-10-18T00:00:22.554Z,15.03
2022-10-18T00:02:49.767Z,15.10
2022-10-18T00:05:17.198Z,15.10
2022-10-18T00:07:44.417Z,15.11
2022-10-18T00:10:11.632Z,15.05
2022-10-18T00:12:38.915Z,15.03
2022-10-18T00:15:09.033Z,15.03
2022-10-18T00:17:37.069Z,15.01
2022-10-18T00:20:05.588Z,15.01
2022-10-18T00:22:34.530Z,15.04
2022-10-18T00:25:01.733Z,15.08
2022-10-18T00:27:29.692Z,15.07
2022-10-18T00:29:56.943Z,15.08
2022-10-18T00:32:38.482Z,15.09
2022-10-18T00:35:07.833Z,15.03
2022-10-18T00:41:39.522Z,14.91
2022-10-18T00:44:45.083Z,14.87
2022-10-18T00:47:15.764Z,14.80
2022-10-18T00:49:47.053Z,14.80
2022-10-18T00:52:18.304Z,14.76
2022-10-18T00:54:47.086Z,14.74
2022-10-18T00:57:14.867Z,14.69
2022-10-18T00:59:43.873Z,14.68
2022-10-18T01:02:11.446Z,14.63
2022-10-18T01:04:38.697Z,14.58
2022-10-18T01:07:15.371Z,14.59
2022-10-18T01:09:47.516Z,14.61
2022-10-18T01:12:22.089Z,14.63
2022-10-18T01:14:56.033Z,14.64
2022-10-18T01:17:29.601Z,14.56
2022-10-18T01:20:16.680Z,14.62
2022-10-18T01:22:50.743Z,14.51
2022-10-18T01:25:29.741Z,14.57
2022-10-18T01:28:04.791Z,14.59
2022-10-18T01:30:53.984Z,14.55
2022-10-18T01:33:30.460Z,14.56
2022-10-18T01:36:03.430Z,14.57
2022-10-18T01:38:33.039Z,14.57
2022-10-18T01:41:02.189Z,14.53
2022-10-18T01:43:31.525Z,14.54
2022-10-18T01:46:00.554Z,14.54
2022-10-18T01:48:29.541Z,14.59
2022-10-18T01:50:56.768Z,14.51
2022-10-18T01:53:30.267Z,14.51
2022-10-18T01:56:26.263Z,14.55
2022-10-18T01:59:03.088Z,14.55
2022-10-18T02:01:41.068Z,14.55
2022-10-18T02:04:19.174Z,14.52
2022-10-18T02:06:53.137Z,14.50
2022-10-18T02:09:30.218Z,14.50
2022-10-18T02:11:58.236Z,14.46
2022-10-18T02:14:26.706Z,14.47
2022-10-18T02:17:00.022Z,14.45
2022-10-18T02:19:31.555Z,14.45
2022-10-18T02:21:59.978Z,14.44
2022-10-18T02:24:34.457Z,14.44
2022-10-18T02:27:02.068Z,14.39
2022-10-18T02:29:30.607Z,14.38
2022-10-18T02:32:06.978Z,14.38
2022-10-18T02:34:39.627Z,14.37
2022-10-18T02:37:09.093Z,14.35
2022-10-18T02:39:42.340Z,14.33
2022-10-18T02:42:10.991Z,14.31
2022-10-18T02:44:38.800Z,14.32
2022-10-18T02:47:09.930Z,14.31
2022-10-18T02:49:37.264Z,14.31
2022-10-18T02:52:04.748Z,14.27
2022-10-18T02:54:32.074Z,14.28
2022-10-18T02:56:59.291Z,14.27
2022-10-18T02:59:26.529Z,14.22
2022-10-18T03:01:53.808Z,14.22
2022-10-18T03:04:22.568Z,14.21
2022-10-18T03:06:49.884Z,14.25
2022-10-18T03:09:17.132Z,14.29
2022-10-18T03:11:44.405Z,14.31
2022-10-18T03:14:11.665Z,14.28
2022-10-18T03:16:38.923Z,14.35
2022-10-18T03:19:06.204Z,14.41
2022-10-18T03:21:34.928Z,14.32
2022-10-18T03:24:02.248Z,14.30
2022-10-18T03:26:29.659Z,14.29
2022-10-18T03:28:57.026Z,14.24
2022-10-18T03:31:24.551Z,14.23
2022-10-18T03:33:52.058Z,14.27
2022-10-18T03:36:19.327Z,14.24
2022-10-18T03:38:47.878Z,14.14
2022-10-18T03:41:15.197Z,14.06
2022-10-18T03:43:42.402Z,14.11
2022-10-18T03:46:09.720Z,14.04
2022-10-18T03:48:36.998Z,14.05
2022-10-18T03:51:04.396Z,14.05
2022-10-18T03:53:31.711Z,13.95
2022-10-18T03:56:00.309Z,13.97
2022-10-18T03:58:27.745Z,13.99
2022-10-18T04:00:55.651Z,14.01
2022-10-18T04:03:23.244Z,13.96
2022-10-18T04:05:50.881Z,13.93
2022-10-18T04:08:18.867Z,13.96
2022-10-18T04:10:46.375Z,13.96
2022-10-18T04:13:15.248Z,13.92
2022-10-18T04:15:43.289Z,13.94
2022-10-18T04:18:10.540Z,13.90
2022-10-18T04:20:37.753Z,13.90
2022-10-18T04:23:04.948Z,13.96
2022-10-18T04:25:32.219Z,13.98
2022-10-18T04:27:59.568Z,13.98
2022-10-18T04:30:28.180Z,13.95
2022-10-18T04:32:55.402Z,13.99
2022-10-18T04:35:22.717Z,13.97
2022-10-18T04:37:50.000Z,13.97
2022-10-18T04:40:17.558Z,14.01
2022-10-18T04:42:44.869Z,14.03
2022-10-18T04:45:12.117Z,14.02
2022-10-18T04:47:40.727Z,13.96
2022-10-18T04:50:08.509Z,14.00
2022-10-18T04:52:35.803Z,14.05
2022-10-18T04:55:03.353Z,14.05
2022-10-18T04:57:30.869Z,14.12
2022-10-18T04:59:58.431Z,14.05
2022-10-18T05:02:25.867Z,14.05
2022-10-18T05:04:54.490Z,14.15
2022-10-18T05:07:21.772Z,14.06
2022-10-18T05:09:49.060Z,14.06
2022-10-18T05:12:16.345Z,14.14
2022-10-18T05:14:43.628Z,14.14
2022-10-18T05:17:10.938Z,14.02
2022-10-18T05:19:38.216Z,14.09
2022-10-18T05:22:06.859Z,14.12
2022-10-18T05:24:34.129Z,14.15
2022-10-18T05:27:01.359Z,14.12
2022-10-18T05:29:28.614Z,14.02
2022-10-18T05:31:56.006Z,14.08
2022-10-18T05:34:23.358Z,14.10
2022-10-18T05:36:50.581Z,14.08
2022-10-18T05:39:19.177Z,13.99
2022-10-18T05:41:46.447Z,14.04
2022-10-18T05:44:13.664Z,14.03
2022-10-18T05:46:40.955Z,14.07
2022-10-18T05:49:09.548Z,14.07
2022-10-18T05:51:36.807Z,13.99
2022-10-18T05:54:04.516Z,14.00
2022-10-18T05:56:33.232Z,14.02
2022-10-18T05:59:00.529Z,14.00
2022-10-18T06:01:27.789Z,13.91
2022-10-18T06:03:55.076Z,13.93
2022-10-18T06:06:22.284Z,13.93
2022-10-18T06:08:49.976Z,13.93
2022-10-18T06:11:19.010Z,14.02
2022-10-18T06:13:49.623Z,13.94
2022-10-18T06:16:19.051Z,13.87
2022-10-18T06:18:47.864Z,13.93
2022-10-18T06:21:15.906Z,13.91
2022-10-18T06:23:43.229Z,13.96
2022-10-18T06:26:11.437Z,13.90
2022-10-18T06:28:38.967Z,13.90
2022-10-18T06:31:07.753Z,13.93
2022-10-18T06:33:35.894Z,13.92
2022-10-18T06:36:05.629Z,13.87
2022-10-18T06:38:33.060Z,13.91
2022-10-18T06:41:00.654Z,14.02
2022-10-18T06:43:28.081Z,13.96
2022-10-18T06:45:55.635Z,13.90
2022-10-18T06:48:24.638Z,13.84
2022-10-18T06:50:53.683Z,13.83
2022-10-18T06:53:20.980Z,13.92
2022-10-18T06:55:48.215Z,13.79
2022-10-18T06:58:15.769Z,13.82
2022-10-18T07:00:43.051Z,13.88
2022-10-18T07:03:10.361Z,13.76
2022-10-18T07:05:39.197Z,13.82
2022-10-18T07:08:06.581Z,13.85
2022-10-18T07:10:33.912Z,13.83
2022-10-18T07:13:20.033Z,13.92
2022-10-18T07:15:48.606Z,13.92
2022-10-18T07:18:15.825Z,13.86
2022-10-18T07:20:44.562Z,13.82
2022-10-18T07:23:11.840Z,13.73
2022-10-18T07:25:39.061Z,13.94
2022-10-18T07:28:06.385Z,13.99
2022-10-18T07:30:34.494Z,14.01
2022-10-18T07:33:01.699Z,14.01
2022-10-18T07:35:28.923Z,13.90
2022-10-18T07:37:57.795Z,13.82
2022-10-18T07:40:25.074Z,13.71
2022-10-18T07:42:52.557Z,13.73
2022-10-18T07:45:19.931Z,13.74
2022-10-18T07:47:47.167Z,13.75
2022-10-18T07:50:14.627Z,13.75
2022-10-18T07:52:41.831Z,13.72
2022-10-18T07:55:10.618Z,13.89
2022-10-18T07:57:37.846Z,13.72
2022-10-18T08:00:06.263Z,13.88
2022-10-18T08:02:38.757Z,13.92
2022-10-18T08:05:06.236Z,13.78
2022-10-18T08:07:33.559Z,13.89
2022-10-18T08:10:01.091Z,13.64
2022-10-18T08:12:29.705Z,13.76
2022-10-18T08:14:57.047Z,13.76
2022-10-18T08:17:24.342Z,13.82
2022-10-18T08:20:04.763Z,13.76
2022-10-18T08:22:39.064Z,13.78
2022-10-18T08:25:07.571Z,13.75
2022-10-18T08:27:36.185Z,13.75
2022-10-18T08:30:03.806Z,13.92
2022-10-18T08:32:31.382Z,13.93
2022-10-18T08:34:58.868Z,13.92
2022-10-18T08:37:26.184Z,14.01
2022-10-18T08:39:53.394Z,14.17
2022-10-18T08:42:42.989Z,14.37
2022-10-18T08:45:29.743Z,14.70
2022-10-18T08:47:58.429Z,14.88
2022-10-18T08:50:31.170Z,14.71
2022-10-18T08:53:05.145Z,14.73
2022-10-18T08:55:39.431Z,14.64
2022-10-18T08:58:17.102Z,14.64
2022-10-18T09:00:50.015Z,14.61
2022-10-18T09:03:29.938Z,14.74
2022-10-18T09:06:08.080Z,14.75
2022-10-18T09:08:46.015Z,14.65
2022-10-18T09:11:31.051Z,14.76
2022-10-18T09:14:20.463Z,14.59
2022-10-18T09:16:55.556Z,14.62
2022-10-18T09:19:43.818Z,14.59
2022-10-18T09:22:14.175Z,14.68
2022-10-18T09:24:46.693Z,14.73
2022-10-18T09:27:16.969Z,14.94
2022-10-18T09:30:02.408Z,14.93
2022-10-18T09:32:47.347Z,15.04
2022-10-18T09:35:18.381Z,14.93
2022-10-18T09:37:47.086Z,14.99
2022-10-18T09:40:19.313Z,14.98
2022-10-18T09:42:55.214Z,15.15
2022-10-18T09:45:28.821Z,15.28
2022-10-18T09:48:03.935Z,15.29
2022-10-18T09:50:38.281Z,15.37
2022-10-18T09:53:16.917Z,15.36
2022-10-18T09:55:58.900Z,15.53
2022-10-18T09:58:33.540Z,15.70
2022-10-18T10:01:02.292Z,16.30
2022-10-18T10:03:30.145Z,18.31
2022-10-18T10:06:22.746Z,19.47
2022-10-18T10:08:57.091Z,20.07
2022-10-18T10:11:34.368Z,19.94
2022-10-18T10:14:19.000Z,20.41
2022-10-18T10:16:53.786Z,20.54
2022-10-18T10:19:24.803Z,20.43
2022-10-18T10:21:56.893Z,20.05
2022-10-18T10:24:31.148Z,20.55
2022-10-18T10:27:00.707Z,20.05
2022-10-18T10:30:01.409Z,19.63
2022-10-18T10:32:44.189Z,19.55
2022-10-18T10:38:24.441Z,19.10
2022-10-18T10:40:52.222Z,18.80
2022-10-18T10:43:40.442Z,18.45
2022-10-18T10:46:11.675Z,18.65
2022-10-18T10:48:49.346Z,18.32
2022-10-18T10:51:28.300Z,18.65
2022-10-18T10:54:00.236Z,18.79
2022-10-18T10:56:29.806Z,19.23
2022-10-18T10:59:01.753Z,18.70
2022-10-18T11:01:32.055Z,19.46
2022-10-18T11:04:02.642Z,19.69
2022-10-18T11:06:43.718Z,19.98
2022-10-18T11:09:27.521Z,19.06
2022-10-18T11:12:14.283Z,19.57
2022-10-18T11:14:46.001Z,20.45
2022-10-18T11:17:21.955Z,21.28
2022-10-18T11:20:03.814Z,21.97
2022-10-18T11:22:36.074Z,21.37
2022-10-18T11:25:04.375Z,21.74
2022-10-18T11:27:36.106Z,22.47
2022-10-18T11:30:19.306Z,20.91
2022-10-18T11:32:57.413Z,21.39
2022-10-18T11:35:38.698Z,19.94
2022-10-18T11:38:22.135Z,18.54
2022-10-18T11:41:03.307Z,19.24
2022-10-18T11:44:01.191Z,20.51
2022-10-18T11:46:41.345Z,20.64
2022-10-18T11:49:39.127Z,21.55
2022-10-18T11:52:13.694Z,19.87
2022-10-18T11:54:57.579Z,19.95
2022-10-18T12:00:18.861Z,21.56
2022-10-18T12:02:59.738Z,21.55
2022-10-18T12:05:28.890Z,21.54
2022-10-18T12:08:01.931Z,20.50
2022-10-18T12:10:44.406Z,19.16
2022-10-18T12:13:25.636Z,20.37
2022-10-18T12:15:54.028Z,21.48
2022-10-18T12:18:25.360Z,20.97
2022-10-18T12:20:55.253Z,20.72
2022-10-18T12:23:35.327Z,21.65
2022-10-18T12:26:04.281Z,21.32
2022-10-18T12:28:42.909Z,21.90
2022-10-18T12:31:20.653Z,22.06
2022-10-18T12:33:51.025Z,20.00
2022-10-18T12:36:43.156Z,20.72
2022-10-18T12:39:27.292Z,20.90
2022-10-18T12:42:05.189Z,21.07
2022-10-18T12:44:34.119Z,21.81
2022-10-18T12:47:03.918Z,21.00
2022-10-18T12:49:34.797Z,21.49
2022-10-18T12:52:04.813Z,21.72
2022-10-18T12:54:35.462Z,20.17
2022-10-18T12:57:05.579Z,18.78
2022-10-18T12:59:50.708Z,19.34
2022-10-18T13:02:31.974Z,20.41
2022-10-18T13:07:37.317Z,21.90
2022-10-18T13:10:40.961Z,22.48
2022-10-18T13:13:38.792Z,21.48
2022-10-18T13:16:20.870Z,21.13
2022-10-18T13:18:53.969Z,21.71
2022-10-18T13:21:33.502Z,21.23
2022-10-18T13:24:25.820Z,21.64
2022-10-18T13:27:36.336Z,22.03
2022-10-18T13:30:27.485Z,20.97
2022-10-18T13:33:08.227Z,21.26
2022-10-18T13:35:48.521Z,21.27
2022-10-18T13:38:39.021Z,22.12
2022-10-18T13:41:09.017Z,22.49
2022-10-18T13:43:59.784Z,22.65
2022-10-18T13:47:00.325Z,22.72
2022-10-18T13:49:38.302Z,21.42
2022-10-18T13:52:18.260Z,21.79
2022-10-18T13:54:56.392Z,21.35
2022-10-18T13:57:44.192Z,21.73
2022-10-18T14:00:29.576Z,21.32
2022-10-18T14:03:55.059Z,21.38
2022-10-18T14:06:21.359Z,20.86
2022-10-18T14:08:55.438Z,21.16
2022-10-18T14:11:30.221Z,21.36
2022-10-18T14:14:07.836Z,22.67
2022-10-18T14:16:43.409Z,22.15
2022-10-18T14:19:21.936Z,21.93
2022-10-18T14:21:55.087Z,21.60
2022-10-18T14:24:25.179Z,21.44
2022-10-18T14:27:12.966Z,22.55
2022-10-18T14:29:40.524Z,22.73
2022-10-18T14:32:10.836Z,22.42
2022-10-18T14:34:38.614Z,21.40
2022-10-18T14:37:14.480Z,20.73
2022-10-18T14:39:41.873Z,20.45
2022-10-18T14:42:20.839Z,19.98
2022-10-18T14:44:51.772Z,20.32
2022-10-18T14:47:22.959Z,20.00
2022-10-18T14:49:51.513Z,20.92
2022-10-18T14:52:26.202Z,20.90
2022-10-18T14:54:55.417Z,20.97
2022-10-18T14:57:25.103Z,21.84
2022-10-18T14:59:55.289Z,20.85
2022-10-18T15:02:25.669Z,20.58
2022-10-18T15:04:58.878Z,20.49
2022-10-18T15:07:28.121Z,20.25
2022-10-18T15:09:57.628Z,20.25
2022-10-18T15:12:26.509Z,20.24
2022-10-18T15:14:54.384Z,19.94
2022-10-18T15:17:24.597Z,20.49
2022-10-18T15:19:59.399Z,19.49
2022-10-18T15:22:33.052Z,19.25
2022-10-18T15:25:15.667Z,19.52
2022-10-18T15:27:45.673Z,19.03
2022-10-18T15:30:18.581Z,19.06
2022-10-18T15:32:51.723Z,18.59
2022-10-18T15:35:26.088Z,18.72
2022-10-18T15:37:58.592Z,18.64
2022-10-18T15:40:35.642Z,18.14
2022-10-18T15:43:05.224Z,18.15
2022-10-18T15:45:36.203Z,18.37
2022-10-18T15:48:19.729Z,18.32
2022-10-18T15:50:48.569Z,17.78
2022-10-18T15:53:44.621Z,17.47
2022-10-18T15:56:27.217Z,17.29
2022-10-18T15:58:56.176Z,17.15
2022-10-18T16:01:29.038Z,16.90
2022-10-18T16:03:56.362Z,16.69
2022-10-18T16:06:23.626Z,16.34
2022-10-18T16:08:53.613Z,16.04
2022-10-18T16:11:22.687Z,15.91
2022-10-18T16:13:51.055Z,15.76
2022-10-18T16:16:21.962Z,15.60
2022-10-18T16:18:50.171Z,15.66
2022-10-18T16:21:19.487Z,15.50
2022-10-18T16:23:47.294Z,15.40
2022-10-18T16:26:17.523Z,15.24
2022-10-18T16:28:45.504Z,15.26
2022-10-18T16:33:51.294Z,15.24
2022-10-18T16:36:20.572Z,15.21
2022-10-18T16:38:48.272Z,15.04
2022-10-18T16:41:16.971Z,14.98
2022-10-18T16:43:45.928Z,14.84
2022-10-18T16:46:16.326Z,14.81
2022-10-18T16:48:44.359Z,14.88
2022-10-18T16:51:12.341Z,14.81
2022-10-18T16:53:39.582Z,14.80
2022-10-18T16:56:13.348Z,14.89
2022-10-18T16:58:42.289Z,14.94
2022-10-18T17:01:11.420Z,14.90
2022-10-18T17:03:38.832Z,14.94
2022-10-18T17:06:06.280Z,14.95
2022-10-18T17:08:33.608Z,14.81
2022-10-18T17:11:00.851Z,14.81
2022-10-18T17:13:28.249Z,14.79
2022-10-18T17:15:56.866Z,14.65
2022-10-18T17:18:25.397Z,14.67
2022-10-18T17:20:52.576Z,14.64
2022-10-18T17:23:20.230Z,14.54
2022-10-18T17:25:59.139Z,14.52
2022-10-18T17:28:32.525Z,14.46
2022-10-18T17:31:01.194Z,14.43
2022-10-18T17:33:28.469Z,14.34
2022-10-18T17:35:55.830Z,14.34
2022-10-18T17:38:23.179Z,14.38
2022-10-18T17:40:50.509Z,14.40
2022-10-18T17:43:17.735Z,14.46
2022-10-18T17:45:47.096Z,14.50
2022-10-18T17:48:15.743Z,14.37
2022-10-18T17:50:43.053Z,14.51
2022-10-18T17:53:10.711Z,14.38
2022-10-18T17:55:37.943Z,14.41
2022-10-18T17:58:05.582Z,14.37
2022-10-18T18:00:32.827Z,14.25
2022-10-18T18:03:00.584Z,14.34
2022-10-18T18:05:32.460Z,14.29
2022-10-18T18:08:03.803Z,14.25
2022-10-18T18:10:32.538Z,14.24
2022-10-18T18:13:00.114Z,14.31
2022-10-18T18:15:27.588Z,14.31
2022-10-18T18:17:58.343Z,14.26
2022-10-18T18:20:26.207Z,14.26
2022-10-18T18:22:54.831Z,14.23
2022-10-18T18:25:22.286Z,14.28
2022-10-18T18:27:49.624Z,14.33
2022-10-18T18:30:17.287Z,14.27
2022-10-18T18:32:44.628Z,14.30
2022-10-18T18:35:11.829Z,14.26
2022-10-18T18:37:39.143Z,14.21
2022-10-18T18:40:08.827Z,14.17
2022-10-18T18:42:36.300Z,14.16
2022-10-18T18:45:04.165Z,14.14
2022-10-18T18:47:31.346Z,14.15
2022-10-18T18:49:58.604Z,14.03
2022-10-18T18:52:25.915Z,14.09
2022-10-18T18:54:53.227Z,14.10
2022-10-18T18:57:22.003Z,14.11
2022-10-18T18:59:49.263Z,14.15
2022-10-18T19:02:16.495Z,14.14
2022-10-18T19:04:43.770Z,14.07
2022-10-18T19:07:11.220Z,14.16
2022-10-18T19:09:38.697Z,14.11
2022-10-18T19:12:06.017Z,14.06
2022-10-18T19:14:34.721Z,14.08
2022-10-18T19:17:02.151Z,14.05
2022-10-18T19:19:30.929Z,14.03
2022-10-18T19:22:00.041Z,14.03
2022-10-18T19:24:29.166Z,14.07
2022-10-18T19:26:58.687Z,14.05
2022-10-18T19:29:27.991Z,13.99
2022-10-18T19:31:58.708Z,14.05
2022-10-18T19:34:28.090Z,13.97
2022-10-18T19:36:55.778Z,14.05
2022-10-18T19:39:24.627Z,14.05
2022-10-18T19:41:58.278Z,14.07
2022-10-18T19:44:28.503Z,13.94
2022-10-18T19:46:57.291Z,14.04
2022-10-18T19:49:24.925Z,13.97
2022-10-18T19:51:52.319Z,13.94
2022-10-18T19:54:19.536Z,13.98
2022-10-18T19:56:47.246Z,13.91
2022-10-18T19:59:16.327Z,13.88
2022-10-18T20:01:44.403Z,13.82
2022-10-18T20:04:13.433Z,13.86
2022-10-18T20:06:41.763Z,13.77
2022-10-18T20:09:13.330Z,13.79
2022-10-18T20:11:43.596Z,13.73
2022-10-18T20:14:10.893Z,13.82
2022-10-18T20:16:38.204Z,13.75
2022-10-18T20:19:07.352Z,13.74
2022-10-18T20:21:36.632Z,13.75
2022-10-18T20:24:04.911Z,13.76
2022-10-18T20:26:32.757Z,13.74
2022-10-18T20:29:00.367Z,13.70
2022-10-18T20:31:29.803Z,13.72
2022-10-18T20:33:59.281Z,13.74
2022-10-18T20:36:28.581Z,13.75
2022-10-18T20:38:58.102Z,13.73
2022-10-18T20:41:28.034Z,13.72
2022-10-18T20:43:56.805Z,13.79
2022-10-18T20:46:24.961Z,13.78
2022-10-18T20:48:53.808Z,13.79
2022-10-18T20:51:21.595Z,13.74
2022-10-18T20:53:49.654Z,13.78
2022-10-18T20:56:20.543Z,13.70
2022-10-18T20:58:49.491Z,13.69
2022-10-18T21:01:18.903Z,13.70
2022-10-18T21:03:48.046Z,13.60
2022-10-18T21:06:20.363Z,13.56
2022-10-18T21:08:47.892Z,13.58
2022-10-18T21:11:15.243Z,13.62
2022-10-18T21:13:44.112Z,13.61
2022-10-18T21:16:11.347Z,13.59
2022-10-18T21:18:38.555Z,13.58
2022-10-18T21:21:11.054Z,13.65
2022-10-18T21:23:38.966Z,13.62
2022-10-18T21:26:06.999Z,13.60
2022-10-18T21:28:34.570Z,13.66
2022-10-18T21:31:12.040Z,13.70
2022-10-18T21:33:39.931Z,13.67
2022-10-18T21:36:07.551Z,13.66
2022-10-18T21:38:35.134Z,13.58
2022-10-18T21:41:07.904Z,13.59
2022-10-18T21:43:35.165Z,13.53
2022-10-18T21:46:02.668Z,13.42
2022-10-18T21:48:31.788Z,13.32
2022-10-18T21:51:02.855Z,13.14
2022-10-18T21:53:30.511Z,13.11
2022-10-18T21:56:04.579Z,12.98
2022-10-18T21:58:31.881Z,12.80
2022-10-18T22:00:59.228Z,12.73
2022-10-18T22:03:26.621Z,12.60
2022-10-18T22:06:00.239Z,12.54
2022-10-18T22:08:27.879Z,12.49
2022-10-18T22:10:57.135Z,12.44
2022-10-18T22:13:24.454Z,12.38
2022-10-18T22:15:52.252Z,12.29
2022-10-18T22:18:19.564Z,12.21
2022-10-18T22:20:54.181Z,12.11
2022-10-18T22:23:23.005Z,12.02
2022-10-18T22:25:50.320Z,11.93
2022-10-18T22:28:17.587Z,11.90
2022-10-18T22:30:44.760Z,11.90
2022-10-18T22:33:12.027Z,11.88
2022-10-18T22:35:39.315Z,11.81
2022-10-18T22:38:06.593Z,11.68
2022-10-18T22:40:35.236Z,11.62
2022-10-18T22:43:02.452Z,11.67
2022-10-18T22:45:29.872Z,11.63
2022-10-18T22:47:57.769Z,11.57
2022-10-18T22:50:25.070Z,11.57
2022-10-18T22:52:54.013Z,11.57
2022-10-18T22:55:22.505Z,11.52
2022-10-18T22:57:51.128Z,11.52
2022-10-18T23:00:18.518Z,11.52
2022-10-18T23:02:48.708Z,11.47
2022-10-18T23:05:16.231Z,11.49
2022-10-18T23:07:47.910Z,11.53
2022-10-18T23:10:15.356Z,11.63
2022-10-18T23:12:42.634Z,11.62
2022-10-18T23:15:12.022Z,11.69
2022-10-18T23:17:39.392Z,11.80
2022-10-18T23:20:07.401Z,11.80
2022-10-18T23:22:34.927Z,11.86
2022-10-18T23:25:02.454Z,11.90
2022-10-18T23:27:29.751Z,12.03
2022-10-18T23:29:57.424Z,12.06
2022-10-18T23:32:26.269Z,12.09
2022-10-18T23:34:53.568Z,12.15
2022-10-18T23:37:20.866Z,12.17
2022-10-18T23:39:48.118Z,12.11
2022-10-18T23:42:15.834Z,12.18
2022-10-18T23:44:43.879Z,12.20
2022-10-18T23:47:11.180Z,12.23
2022-10-18T23:49:39.926Z,12.27
2022-10-18T23:52:07.277Z,12.25
2022-10-18T23:54:34.871Z,12.38
2022-10-18T23:57:02.172Z,12.42
2022-10-18T23:59:29.437Z,12.33
